Sointula, Canada
Current Conditions -  °F | °C
As of 5:00 AM on Saturday 25 Oct 2014 (Local Time) from CYZT Reporting Station
Broken Clouds Broken Clouds  
Wind Chill: 43°   Ceiling: 14000
Heat Index: 43°   Visibility: 15mi
Dew Point: 43°   Wind: 0mph
Humidity: 100%   Direction: NA
Pressure: 29.61"   Gusts: NA
Location:  50.63°N, 127.02°W
Report Text: CYZT 251200Z 00000KT 15SM FEW012 BKN140 BKN180 06/06 A2961 RMK SC1AC5AC2 SC TR SLP028
Loading
Personal Weather Stations






























Interactive Weather Map
Tropical Storm Tracking
New forecast layout! Learn more

10-Day Weather Forecast

Advertisements
Track Severe Weather on mobile